createdAt,value
2023-01-08T00:01:25.512Z,100367.40
2023-01-08T00:16:29.187Z,100349.14
2023-01-08T00:31:32.139Z,100341.91
2023-01-08T00:46:34.760Z,100326.77
2023-01-08T01:01:53.855Z,100315.85
2023-01-08T01:17:12.617Z,100313.77
2023-01-08T01:32:29.698Z,100306.73
2023-01-08T01:47:37.306Z,100308.55
2023-01-08T02:02:55.541Z,100297.98
2023-01-08T02:18:12.506Z,100276.55
2023-01-08T02:33:32.353Z,100258.20
2023-01-08T03:04:22.155Z,100230.69
2023-01-08T03:35:24.177Z,100208.81
2023-01-08T03:50:31.002Z,100181.70
2023-01-08T04:05:33.652Z,100163.70
2023-01-08T04:20:36.500Z,100150.65
2023-01-08T04:35:39.099Z,100153.73
2023-01-08T04:51:00.964Z,100135.55
2023-01-08T05:06:18.017Z,100113.36
2023-01-08T05:21:20.700Z,100106.84
2023-01-08T05:36:23.375Z,100109.80
2023-01-08T05:51:26.111Z,100110.11
2023-01-08T06:06:43.132Z,100100.88
2023-01-08T06:21:45.776Z,100084.79
2023-01-08T06:36:48.312Z,100079.34
2023-01-08T06:51:51.143Z,100073.55
2023-01-08T07:06:53.854Z,100057.11
2023-01-08T07:22:11.280Z,100044.87
2023-01-08T07:37:14.023Z,100042.40
2023-01-08T07:52:16.750Z,100031.39
2023-01-08T08:07:19.482Z,100024.98
2023-01-08T08:22:22.259Z,100020.98
2023-01-08T08:37:25.008Z,100028.17
2023-01-08T08:52:29.059Z,100008.63
2023-01-08T09:07:32.029Z,100005.77
2023-01-08T09:22:34.746Z,100005.96
2023-01-08T09:37:37.605Z,100004.53
2023-01-08T09:52:54.917Z,99974.83
2023-01-08T10:07:57.553Z,99976.01
2023-01-08T10:38:36.093Z,99944.42
2023-01-08T10:53:40.910Z,99943.55
2023-01-08T11:08:52.627Z,99918.66
2023-01-08T11:33:39.600Z,99885.89
2023-01-08T11:49:07.616Z,99871.18
2023-01-08T12:04:42.103Z,99865.14
2023-01-08T12:20:41.160Z,99839.94
2023-01-08T12:35:54.735Z,99818.92
2023-01-08T12:51:28.402Z,99819.08
2023-01-08T13:06:31.654Z,99811.42
2023-01-08T13:21:59.293Z,99820.27
2023-01-08T13:37:02.147Z,99804.05
2023-01-08T13:52:05.374Z,99779.84
2023-01-08T14:07:15.293Z,99773.44
2023-01-08T14:22:32.646Z,99766.81
2023-01-08T14:37:35.762Z,99762.50
2023-01-08T14:52:40.029Z,99758.74
2023-01-08T15:07:58.716Z,99738.77
2023-01-08T15:23:01.603Z,99724.86
2023-01-08T15:38:06.660Z,99725.56
2023-01-08T15:53:19.594Z,99725.80
2023-01-08T16:08:22.626Z,99723.59
2023-01-08T16:23:25.225Z,99713.73
2023-01-08T16:38:29.392Z,99694.35
2023-01-08T16:53:35.133Z,99688.50
2023-01-08T17:08:39.691Z,99700.98
2023-01-08T17:23:42.948Z,99704.04
2023-01-08T17:38:48.727Z,99686.00
2023-01-08T17:54:07.493Z,99670.23
2023-01-08T18:09:12.232Z,99678.05
2023-01-08T18:24:16.050Z,99685.12
2023-01-08T18:39:18.697Z,99678.46
2023-01-08T18:54:21.661Z,99666.52
2023-01-08T19:10:54.986Z,99669.33
2023-01-08T19:25:57.997Z,99662.98
2023-01-08T19:41:00.788Z,99657.72
2023-01-08T19:56:11.274Z,99654.52
2023-01-08T20:11:17.307Z,99634.96
2023-01-08T20:26:20.263Z,99597.52
2023-01-08T20:41:24.040Z,99575.64
2023-01-08T20:56:43.391Z,99551.58
2023-01-08T21:11:46.481Z,99536.89
2023-01-08T21:27:04.012Z,99526.73
2023-01-08T21:42:25.284Z,99508.89
2023-01-08T21:57:28.495Z,99500.19
2023-01-08T22:12:31.333Z,99496.77
2023-01-08T22:27:34.136Z,99486.16
2023-01-08T22:42:37.151Z,99464.74
2023-01-08T22:57:40.054Z,99468.05
2023-01-08T23:12:42.683Z,99443.92
2023-01-08T23:27:45.926Z,99415.19
2023-01-08T23:43:03.128Z,99409.79
2023-01-08T23:58:21.005Z,99392.41
